FranceFixed distance
Samoëns Trail Tour - Tour du Criou
16 Jun2018
Distance
49km
Finishers
431371 men60 women
Winning time
5:28:44h
Median pace
5.01km/h
Pace distribution
431 finishers · 3.50–8.94 km/h · mean 5.16
Every finisher ran the same 49 km course, so these paces are directly comparable.
Histogram of finisher pace. 431 finishers ranged from 3.50 to 8.94 kilometres per hour, with a mean of 5.16 and a median of 5.01. The busiest band is 4.0 to 4.5 kilometres per hour, with 93 finishers.
Results
Ranks 51–100 of 431
| Rank | Runner | Time | Pace | Cat. | Placing |
|---|---|---|---|---|---|
| 51 | UAV | 7:45:29h | 6.32 | M35 | 48th M · 13th M35 |
| 52 | 7:48:50h | 6.27 | M45 | 49th M · 8th M45 | |
| 53 | La Saline | 7:49:14h | 6.27 | M35 | 50th M · 14th M35 |
| 54 | 7:49:39h | 6.26 | M23 | 51st M · 17th M23 | |
| 55 | 7:49:44h | 6.26 | M40 | 52nd M · 12th M40 | |
| 56 | 7:49:48h | 6.26 | M35 | 53rd M · 15th M35 | |
| 57 | CAP Endurance | 7:50:57h | 6.24 | M45 | 54th M · 9th M45 |
| 58 | Smegma | 7:52:28h | 6.22 | M40 | 55th M · 13th M40 |
| 59 | 7:52:40h | 6.22 | W40 | 4th F · 3rd W40 | |
| 60 | Team Priams | 7:53:55h | 6.20 | M45 | 56th M · 10th M45 |
| 61 | Enjoy Your Run | 7:58:35h | 6.14 | M40 | 57th M · 14th M40 |
| 62 | 7:58:55h | 6.14 | M23 | 58th M · 18th M23 | |
| 63 | Peak Performance | 7:59:32h | 6.13 | M23 | 59th M · 19th M23 |
| 64 | 8:00:18h | 6.12 | M35 | 60th M · 16th M35 | |
| 65 | 8:02:48h | 6.09 | M35 | 61st M · 17th M35 | |
| 66 | 8:04:05h | 6.07 | M23 | 62nd M · 20th M23 | |
| 67 | 8:05:55h | 6.05 | M23 | 63rd M · 21st M23 | |
| 68 | 8:06:13h | 6.05 | M23 | 64th M · 22nd M23 | |
| 69 | Colmar Trail Aventure | 8:07:08h | 6.04 | M55 | 65th M · 1st M55 |
| 70 | AIX Athle Provence | 8:07:40h | 6.03 | M40 | 66th M · 15th M40 |
| 71 | 8:07:46h | 6.03 | M23 | 67th M · 23rd M23 | |
| 72 | BAC | 8:08:03h | 6.02 | W50 | 5th F · 1st W50 |
| 73 | Saleve Trail | 8:08:15h | 6.02 | W35 | 6th F · 1st W35 |
| 74 | Les Chamois Du Lac Bleu | 8:11:40h | 5.98 | M40 | 68th M · 16th M40 |
| 75 | Les Chamois Du Lac Bleu | 8:11:41h | 5.98 | M23 | 69th M · 24th M23 |
| 76 | 8:12:39h | 5.97 | M40 | 70th M · 17th M40 | |
| 77 | Team Coins Secrets | 8:12:47h | 5.97 | M50 | 71st M · 2nd M50 |
| 78 | Douchpelme | 8:13:29h | 5.96 | M40 | 72nd M · 18th M40 |
| 79 | WEX.BE | 8:13:49h | 5.95 | M35 | 73rd M · 18th M35 |
| 80 | Trail Adventure Marche | 8:14:14h | 5.95 | M40 | 74th M · 19th M40 |
| 81 | 8:14:20h | 5.95 | M35 | 75th M · 19th M35 | |
| 82 | Leman Trail | 8:15:01h | 5.94 | M23 | 76th M · 25th M23 |
| 83 | Team Trail Explorer | 8:15:06h | 5.94 | W23 | 7th F · 2nd W23 |
| 84 | Team Trail Explorer | 8:15:07h | 5.94 | M45 | 77th M · 11th M45 |
| 85 | 8:15:36h | 5.93 | M23 | 78th M · 26th M23 | |
| 86 | 8:18:43h | 5.89 | M23 | 79th M · 27th M23 | |
| 87 | 8:21:18h | 5.87 | M35 | 80th M · 20th M35 | |
| 88 | Kalenji | 8:22:15h | 5.85 | M23 | 81st M · 28th M23 |
| 89 | Paac | 8:23:09h | 5.84 | M55 | 82nd M · 2nd M55 |
| 90 | 8:25:05h | 5.82 | M23 | 83rd M · 29th M23 | |
| 91 | Temps Champsaur Nature | 8:25:22h | 5.82 | M50 | 84th M · 3rd M50 |
| 92 | AIX Athle Provence | 8:25:36h | 5.82 | W35 | 8th F · 2nd W35 |
| 93 | 8:25:39h | 5.81 | M40 | 85th M · 20th M40 | |
| 94 | 8:25:48h | 5.81 | W23 | 9th F · 3rd W23 | |
| 95 | Chartres Vertical | 8:25:50h | 5.81 | M35 | 86th M · 21st M35 |
| 96 | Town + Country Harriers | 8:26:50h | 5.80 | M50 | 87th M · 4th M50 |
| 97 | CA Dents du Midi | 8:27:37h | 5.79 | M40 | 88th M · 21st M40 |
| 98 | 8:27:49h | 5.79 | M35 | 89th M · 22nd M35 | |
| 99 | 8:28:12h | 5.79 | M23 | 90th M · 30th M23 | |
| 100 | 8:29:14h | 5.77 | M40 | 91st M · 22nd M40 |
- 51UAV48th M · 13th M35Time7:45:29hPace6.32Cat.M35
- 5249th M · 8th M45Time7:48:50hPace6.27Cat.M45
- 53La Saline50th M · 14th M35Time7:49:14hPace6.27Cat.M35
- 5451st M · 17th M23Time7:49:39hPace6.26Cat.M23
- 5552nd M · 12th M40Time7:49:44hPace6.26Cat.M40
- 5653rd M · 15th M35Time7:49:48hPace6.26Cat.M35
- 57CAP Endurance54th M · 9th M45Time7:50:57hPace6.24Cat.M45
- 58Smegma55th M · 13th M40Time7:52:28hPace6.22Cat.M40
- 594th F · 3rd W40Time7:52:40hPace6.22Cat.W40
- 60Team Priams56th M · 10th M45Time7:53:55hPace6.20Cat.M45
- 61Enjoy Your Run57th M · 14th M40Time7:58:35hPace6.14Cat.M40
- 6258th M · 18th M23Time7:58:55hPace6.14Cat.M23
- 63Peak Performance59th M · 19th M23Time7:59:32hPace6.13Cat.M23
- 6460th M · 16th M35Time8:00:18hPace6.12Cat.M35
- 6561st M · 17th M35Time8:02:48hPace6.09Cat.M35
- 6662nd M · 20th M23Time8:04:05hPace6.07Cat.M23
- 6763rd M · 21st M23Time8:05:55hPace6.05Cat.M23
- 6864th M · 22nd M23Time8:06:13hPace6.05Cat.M23
- 69Colmar Trail Aventure65th M · 1st M55Time8:07:08hPace6.04Cat.M55
- 70AIX Athle Provence66th M · 15th M40Time8:07:40hPace6.03Cat.M40
- 7167th M · 23rd M23Time8:07:46hPace6.03Cat.M23
- 72BAC5th F · 1st W50Time8:08:03hPace6.02Cat.W50
- 73Saleve Trail6th F · 1st W35Time8:08:15hPace6.02Cat.W35
- 74Les Chamois Du Lac Bleu68th M · 16th M40Time8:11:40hPace5.98Cat.M40
- 75Les Chamois Du Lac Bleu69th M · 24th M23Time8:11:41hPace5.98Cat.M23
- 7670th M · 17th M40Time8:12:39hPace5.97Cat.M40
- 77Team Coins Secrets71st M · 2nd M50Time8:12:47hPace5.97Cat.M50
- 78Douchpelme72nd M · 18th M40Time8:13:29hPace5.96Cat.M40
- 79WEX.BE73rd M · 18th M35Time8:13:49hPace5.95Cat.M35
- 80Trail Adventure Marche74th M · 19th M40Time8:14:14hPace5.95Cat.M40
- 8175th M · 19th M35Time8:14:20hPace5.95Cat.M35
- 82Leman Trail76th M · 25th M23Time8:15:01hPace5.94Cat.M23
- 83Team Trail Explorer7th F · 2nd W23Time8:15:06hPace5.94Cat.W23
- 84Team Trail Explorer77th M · 11th M45Time8:15:07hPace5.94Cat.M45
- 8578th M · 26th M23Time8:15:36hPace5.93Cat.M23
- 8679th M · 27th M23Time8:18:43hPace5.89Cat.M23
- 8780th M · 20th M35Time8:21:18hPace5.87Cat.M35
- 88Kalenji81st M · 28th M23Time8:22:15hPace5.85Cat.M23
- 89Paac82nd M · 2nd M55Time8:23:09hPace5.84Cat.M55
- 9083rd M · 29th M23Time8:25:05hPace5.82Cat.M23
- 91Temps Champsaur Nature84th M · 3rd M50Time8:25:22hPace5.82Cat.M50
- 92AIX Athle Provence8th F · 2nd W35Time8:25:36hPace5.82Cat.W35
- 9385th M · 20th M40Time8:25:39hPace5.81Cat.M40
- 949th F · 3rd W23Time8:25:48hPace5.81Cat.W23
- 95Chartres Vertical86th M · 21st M35Time8:25:50hPace5.81Cat.M35
- 96Town + Country Harriers87th M · 4th M50Time8:26:50hPace5.80Cat.M50
- 97CA Dents du Midi88th M · 21st M40Time8:27:37hPace5.79Cat.M40
- 9889th M · 22nd M35Time8:27:49hPace5.79Cat.M35
- 9990th M · 30th M23Time8:28:12hPace5.79Cat.M23
- 10091st M · 22nd M40Time8:29:14hPace5.77Cat.M40
Showing ranks 51–100 of 431